sensor_id;sensor_type;location;lat;lon;timestamp;temperature;humidity
4820;DHT22;2424;49.696;6.630;2023-07-02T00:00:13;16.30;99.90
4820;DHT22;2424;49.696;6.630;2023-07-02T00:05:35;16.40;99.90
4820;DHT22;2424;49.696;6.630;2023-07-02T00:10:59;16.30;99.90
4820;DHT22;2424;49.696;6.630;2023-07-02T00:16:21;16.30;99.90
4820;DHT22;2424;49.696;6.630;2023-07-02T00:21:43;16.30;99.90
4820;DHT22;2424;49.696;6.630;2023-07-02T00:27:07;16.30;99.90
4820;DHT22;2424;49.696;6.630;2023-07-02T00:32:29;16.20;99.90
4820;DHT22;2424;49.696;6.630;2023-07-02T00:37:51;16.20;99.90
4820;DHT22;2424;49.696;6.630;2023-07-02T00:43:14;16.10;99.90
4820;DHT22;2424;49.696;6.630;2023-07-02T00:48:38;16.00;99.90
4820;DHT22;2424;49.696;6.630;2023-07-02T00:54:00;16.00;99.90
4820;DHT22;2424;49.696;6.630;2023-07-02T00:59:24;16.00;99.90
4820;DHT22;2424;49.696;6.630;2023-07-02T01:04:47;16.00;99.90
4820;DHT22;2424;49.696;6.630;2023-07-02T01:10:10;16.00;99.90
4820;DHT22;2424;49.696;6.630;2023-07-02T01:15:34;15.90;99.90
4820;DHT22;2424;49.696;6.630;2023-07-02T01:20:58;15.90;99.90
4820;DHT22;2424;49.696;6.630;2023-07-02T01:26:22;15.90;99.90
4820;DHT22;2424;49.696;6.630;2023-07-02T01:31:44;15.80;99.90
4820;DHT22;2424;49.696;6.630;2023-07-02T01:37:09;15.80;99.90
4820;DHT22;2424;49.696;6.630;2023-07-02T01:42:31;15.80;99.90
4820;DHT22;2424;49.696;6.630;2023-07-02T01:47:53;15.60;99.90
4820;DHT22;2424;49.696;6.630;2023-07-02T01:53:16;15.60;99.90
4820;DHT22;2424;49.696;6.630;2023-07-02T01:58:38;15.60;99.90
4820;DHT22;2424;49.696;6.630;2023-07-02T02:04:00;15.50;99.90
4820;DHT22;2424;49.696;6.630;2023-07-02T02:09:24;15.50;99.90
4820;DHT22;2424;49.696;6.630;2023-07-02T02:14:49;15.50;99.90
4820;DHT22;2424;49.696;6.630;2023-07-02T02:20:12;15.50;99.90
4820;DHT22;2424;49.696;6.630;2023-07-02T02:25:36;15.50;99.90
4820;DHT22;2424;49.696;6.630;2023-07-02T02:30:58;15.50;99.90
4820;DHT22;2424;49.696;6.630;2023-07-02T02:36:20;15.50;99.90
4820;DHT22;2424;49.696;6.630;2023-07-02T02:41:43;15.40;99.90
4820;DHT22;2424;49.696;6.630;2023-07-02T02:47:05;15.30;99.90
4820;DHT22;2424;49.696;6.630;2023-07-02T02:52:27;15.40;99.90
4820;DHT22;2424;49.696;6.630;2023-07-02T02:57:51;15.50;99.90
4820;DHT22;2424;49.696;6.630;2023-07-02T03:03:13;15.50;99.90
4820;DHT22;2424;49.696;6.630;2023-07-02T03:08:36;15.50;99.90
4820;DHT22;2424;49.696;6.630;2023-07-02T03:13:59;15.40;99.90
4820;DHT22;2424;49.696;6.630;2023-07-02T03:19:21;15.40;99.90
4820;DHT22;2424;49.696;6.630;2023-07-02T03:24:43;15.40;99.90
4820;DHT22;2424;49.696;6.630;2023-07-02T03:30:08;15.30;99.90
4820;DHT22;2424;49.696;6.630;2023-07-02T03:35:30;15.30;99.90
4820;DHT22;2424;49.696;6.630;2023-07-02T03:40:52;15.30;99.90
4820;DHT22;2424;49.696;6.630;2023-07-02T03:46:16;15.20;99.90
4820;DHT22;2424;49.696;6.630;2023-07-02T03:51:38;15.20;99.90
4820;DHT22;2424;49.696;6.630;2023-07-02T03:57:00;15.20;99.90
4820;DHT22;2424;49.696;6.630;2023-07-02T04:02:24;15.10;99.90
4820;DHT22;2424;49.696;6.630;2023-07-02T04:07:46;15.20;99.90
4820;DHT22;2424;49.696;6.630;2023-07-02T04:13:08;15.20;99.90
4820;DHT22;2424;49.696;6.630;2023-07-02T04:18:32;15.10;99.90
4820;DHT22;2424;49.696;6.630;2023-07-02T04:23:54;15.10;99.90
4820;DHT22;2424;49.696;6.630;2023-07-02T04:29:16;15.10;99.90
4820;DHT22;2424;49.696;6.630;2023-07-02T04:34:40;15.10;99.90
4820;DHT22;2424;49.696;6.630;2023-07-02T04:40:02;15.10;99.90
4820;DHT22;2424;49.696;6.630;2023-07-02T04:45:27;15.10;99.90
4820;DHT22;2424;49.696;6.630;2023-07-02T04:50:58;15.10;99.90
4820;DHT22;2424;49.696;6.630;2023-07-02T04:56:20;15.10;99.90
4820;DHT22;2424;49.696;6.630;2023-07-02T05:01:42;15.00;99.90
4820;DHT22;2424;49.696;6.630;2023-07-02T05:07:06;14.90;99.90
4820;DHT22;2424;49.696;6.630;2023-07-02T05:12:28;14.90;99.90
4820;DHT22;2424;49.696;6.630;2023-07-02T05:17:50;14.90;99.90
4820;DHT22;2424;49.696;6.630;2023-07-02T05:23:14;14.80;99.90
4820;DHT22;2424;49.696;6.630;2023-07-02T05:28:36;14.70;99.90
4820;DHT22;2424;49.696;6.630;2023-07-02T05:33:58;14.70;99.90
4820;DHT22;2424;49.696;6.630;2023-07-02T05:39:21;14.90;99.90
4820;DHT22;2424;49.696;6.630;2023-07-02T05:44:43;14.90;99.90
4820;DHT22;2424;49.696;6.630;2023-07-02T05:50:07;15.00;99.90
4820;DHT22;2424;49.696;6.630;2023-07-02T05:55:30;14.90;99.90
4820;DHT22;2424;49.696;6.630;2023-07-02T06:00:52;15.00;99.90
4820;DHT22;2424;49.696;6.630;2023-07-02T06:06:15;15.00;99.90
4820;DHT22;2424;49.696;6.630;2023-07-02T06:11:38;15.10;99.90
4820;DHT22;2424;49.696;6.630;2023-07-02T06:17:00;15.20;99.90
4820;DHT22;2424;49.696;6.630;2023-07-02T06:22:26;15.20;99.90
4820;DHT22;2424;49.696;6.630;2023-07-02T06:27:49;15.30;99.90
4820;DHT22;2424;49.696;6.630;2023-07-02T06:33:12;15.40;99.90
4820;DHT22;2424;49.696;6.630;2023-07-02T06:38:34;15.50;99.90
4820;DHT22;2424;49.696;6.630;2023-07-02T06:43:58;15.40;99.90
4820;DHT22;2424;49.696;6.630;2023-07-02T06:49:21;15.40;99.90
4820;DHT22;2424;49.696;6.630;2023-07-02T06:54:43;15.50;99.90
4820;DHT22;2424;49.696;6.630;2023-07-02T07:00:08;15.50;99.90
4820;DHT22;2424;49.696;6.630;2023-07-02T07:05:30;15.60;99.90
4820;DHT22;2424;49.696;6.630;2023-07-02T07:10:52;15.60;99.90
4820;DHT22;2424;49.696;6.630;2023-07-02T07:16:16;15.70;99.90
4820;DHT22;2424;49.696;6.630;2023-07-02T07:21:38;15.90;99.90
4820;DHT22;2424;49.696;6.630;2023-07-02T07:27:00;16.10;99.90
4820;DHT22;2424;49.696;6.630;2023-07-02T07:32:24;16.30;99.90
4820;DHT22;2424;49.696;6.630;2023-07-02T07:37:47;16.40;99.90
4820;DHT22;2424;49.696;6.630;2023-07-02T07:43:09;16.40;99.90
4820;DHT22;2424;49.696;6.630;2023-07-02T07:48:32;16.50;99.90
4820;DHT22;2424;49.696;6.630;2023-07-02T07:53:54;16.60;99.90
4820;DHT22;2424;49.696;6.630;2023-07-02T07:59:16;16.70;99.90
4820;DHT22;2424;49.696;6.630;2023-07-02T08:04:40;16.80;99.90
4820;DHT22;2424;49.696;6.630;2023-07-02T08:10:02;16.90;99.90
4820;DHT22;2424;49.696;6.630;2023-07-02T08:15:24;16.90;99.90
4820;DHT22;2424;49.696;6.630;2023-07-02T08:20:48;17.00;99.90
4820;DHT22;2424;49.696;6.630;2023-07-02T08:26:10;17.10;99.90
4820;DHT22;2424;49.696;6.630;2023-07-02T08:31:32;17.00;99.90
4820;DHT22;2424;49.696;6.630;2023-07-02T08:36:57;16.90;99.90
4820;DHT22;2424;49.696;6.630;2023-07-02T08:42:19;17.00;99.90
4820;DHT22;2424;49.696;6.630;2023-07-02T08:47:41;17.10;99.90
4820;DHT22;2424;49.696;6.630;2023-07-02T08:53:05;17.10;99.90
4820;DHT22;2424;49.696;6.630;2023-07-02T08:58:27;17.20;99.90
4820;DHT22;2424;49.696;6.630;2023-07-02T09:03:49;17.30;99.90
4820;DHT22;2424;49.696;6.630;2023-07-02T09:09:12;17.30;99.90
4820;DHT22;2424;49.696;6.630;2023-07-02T09:14:34;17.40;99.90
4820;DHT22;2424;49.696;6.630;2023-07-02T09:19:58;17.50;99.90
4820;DHT22;2424;49.696;6.630;2023-07-02T09:25:22;17.60;99.90
4820;DHT22;2424;49.696;6.630;2023-07-02T09:30:56;17.70;99.90
4820;DHT22;2424;49.696;6.630;2023-07-02T09:36:18;17.80;99.90
4820;DHT22;2424;49.696;6.630;2023-07-02T09:41:42;17.70;99.90
4820;DHT22;2424;49.696;6.630;2023-07-02T09:47:06;17.90;99.90
4820;DHT22;2424;49.696;6.630;2023-07-02T09:52:29;17.90;99.90
4820;DHT22;2424;49.696;6.630;2023-07-02T09:57:53;17.90;99.90
4820;DHT22;2424;49.696;6.630;2023-07-02T10:03:15;18.00;99.90
4820;DHT22;2424;49.696;6.630;2023-07-02T10:08:37;18.10;99.90
4820;DHT22;2424;49.696;6.630;2023-07-02T10:14:00;18.10;99.90
4820;DHT22;2424;49.696;6.630;2023-07-02T10:19:22;18.30;99.90
4820;DHT22;2424;49.696;6.630;2023-07-02T10:24:51;18.60;99.90
4820;DHT22;2424;49.696;6.630;2023-07-02T10:30:15;18.60;99.90
4820;DHT22;2424;49.696;6.630;2023-07-02T10:35:38;18.70;99.90
4820;DHT22;2424;49.696;6.630;2023-07-02T10:41:02;19.10;99.90
4820;DHT22;2424;49.696;6.630;2023-07-02T10:46:25;19.00;99.90
4820;DHT22;2424;49.696;6.630;2023-07-02T10:51:57;18.70;99.90
4820;DHT22;2424;49.696;6.630;2023-07-02T10:57:19;18.50;99.90
4820;DHT22;2424;49.696;6.630;2023-07-02T11:02:43;18.90;99.90
4820;DHT22;2424;49.696;6.630;2023-07-02T11:08:08;19.20;99.90
4820;DHT22;2424;49.696;6.630;2023-07-02T11:13:30;19.30;99.90
4820;DHT22;2424;49.696;6.630;2023-07-02T11:19:06;19.10;99.90
4820;DHT22;2424;49.696;6.630;2023-07-02T11:24:30;19.10;99.90
4820;DHT22;2424;49.696;6.630;2023-07-02T11:29:59;19.40;99.90
4820;DHT22;2424;49.696;6.630;2023-07-02T11:35:34;19.40;99.90
4820;DHT22;2424;49.696;6.630;2023-07-02T11:40:56;19.70;99.90
4820;DHT22;2424;49.696;6.630;2023-07-02T11:46:18;19.50;99.90
4820;DHT22;2424;49.696;6.630;2023-07-02T11:51:42;19.60;99.90
4820;DHT22;2424;49.696;6.630;2023-07-02T11:57:08;20.00;99.90
4820;DHT22;2424;49.696;6.630;2023-07-02T12:02:30;20.20;99.90
4820;DHT22;2424;49.696;6.630;2023-07-02T12:07:54;20.20;99.90
4820;DHT22;2424;49.696;6.630;2023-07-02T12:13:16;20.30;99.90
4820;DHT22;2424;49.696;6.630;2023-07-02T12:18:38;20.00;99.90
4820;DHT22;2424;49.696;6.630;2023-07-02T12:24:02;19.90;99.90
4820;DHT22;2424;49.696;6.630;2023-07-02T12:29:29;20.20;99.90
4820;DHT22;2424;49.696;6.630;2023-07-02T12:34:51;20.20;99.90
4820;DHT22;2424;49.696;6.630;2023-07-02T12:40:14;20.80;99.90
4820;DHT22;2424;49.696;6.630;2023-07-02T12:45:37;21.30;99.90
4820;DHT22;2424;49.696;6.630;2023-07-02T12:50:59;21.00;99.90
4820;DHT22;2424;49.696;6.630;2023-07-02T12:56:23;21.00;99.90
4820;DHT22;2424;49.696;6.630;2023-07-02T13:01:45;20.60;99.90
4820;DHT22;2424;49.696;6.630;2023-07-02T13:07:08;21.30;99.90
4820;DHT22;2424;49.696;6.630;2023-07-02T13:12:32;21.50;99.90
4820;DHT22;2424;49.696;6.630;2023-07-02T13:17:54;21.50;99.90
4820;DHT22;2424;49.696;6.630;2023-07-02T13:23:16;21.70;99.90
4820;DHT22;2424;49.696;6.630;2023-07-02T13:28:39;21.60;99.90
4820;DHT22;2424;49.696;6.630;2023-07-02T13:34:02;21.40;99.90
4820;DHT22;2424;49.696;6.630;2023-07-02T13:39:24;21.50;99.90
4820;DHT22;2424;49.696;6.630;2023-07-02T13:44:47;21.70;99.90
4820;DHT22;2424;49.696;6.630;2023-07-02T13:50:10;22.20;99.60
4820;DHT22;2424;49.696;6.630;2023-07-02T13:55:32;22.30;98.30
4820;DHT22;2424;49.696;6.630;2023-07-02T14:00:56;21.80;98.50
4820;DHT22;2424;49.696;6.630;2023-07-02T14:06:18;21.50;99.80
4820;DHT22;2424;49.696;6.630;2023-07-02T14:11:41;21.30;99.90
4820;DHT22;2424;49.696;6.630;2023-07-02T14:17:05;21.30;99.90
4820;DHT22;2424;49.696;6.630;2023-07-02T14:22:28;21.20;99.90
4820;DHT22;2424;49.696;6.630;2023-07-02T14:27:50;21.60;99.90
4820;DHT22;2424;49.696;6.630;2023-07-02T14:33:14;21.70;99.90
4820;DHT22;2424;49.696;6.630;2023-07-02T14:38:36;21.90;99.90
4820;DHT22;2424;49.696;6.630;2023-07-02T14:43:58;21.70;99.90
4820;DHT22;2424;49.696;6.630;2023-07-02T14:49:22;21.70;99.90
4820;DHT22;2424;49.696;6.630;2023-07-02T14:54:44;21.90;99.20
4820;DHT22;2424;49.696;6.630;2023-07-02T15:00:08;21.40;99.80
4820;DHT22;2424;49.696;6.630;2023-07-02T15:05:32;21.30;99.90
4820;DHT22;2424;49.696;6.630;2023-07-02T15:10:54;21.20;99.80
4820;DHT22;2424;49.696;6.630;2023-07-02T15:16:16;21.30;99.90
4820;DHT22;2424;49.696;6.630;2023-07-02T15:21:42;21.20;99.90
4820;DHT22;2424;49.696;6.630;2023-07-02T15:27:05;21.60;99.90
4820;DHT22;2424;49.696;6.630;2023-07-02T15:32:28;22.00;99.90
4820;DHT22;2424;49.696;6.630;2023-07-02T15:37:51;21.60;99.90
4820;DHT22;2424;49.696;6.630;2023-07-02T15:43:14;21.60;99.90
4820;DHT22;2424;49.696;6.630;2023-07-02T15:48:36;21.30;99.90
4820;DHT22;2424;49.696;6.630;2023-07-02T15:54:00;21.30;99.90
4820;DHT22;2424;49.696;6.630;2023-07-02T15:59:22;21.10;99.90
4820;DHT22;2424;49.696;6.630;2023-07-02T16:04:44;21.10;99.90
4820;DHT22;2424;49.696;6.630;2023-07-02T16:10:09;21.20;99.90
4820;DHT22;2424;49.696;6.630;2023-07-02T16:15:31;21.10;99.90
4820;DHT22;2424;49.696;6.630;2023-07-02T16:20:55;21.70;99.90
4820;DHT22;2424;49.696;6.630;2023-07-02T16:26:18;21.50;99.90
4820;DHT22;2424;49.696;6.630;2023-07-02T16:31:44;21.70;99.90
4820;DHT22;2424;49.696;6.630;2023-07-02T16:37:06;21.40;99.90
4820;DHT22;2424;49.696;6.630;2023-07-02T16:42:30;21.20;99.90
4820;DHT22;2424;49.696;6.630;2023-07-02T16:47:53;21.10;99.90
4820;DHT22;2424;49.696;6.630;2023-07-02T16:53:15;20.90;99.90
4820;DHT22;2424;49.696;6.630;2023-07-02T16:58:39;21.00;99.90
4820;DHT22;2424;49.696;6.630;2023-07-02T17:04:01;21.10;99.90
4820;DHT22;2424;49.696;6.630;2023-07-02T17:09:24;21.20;99.90
4820;DHT22;2424;49.696;6.630;2023-07-02T17:14:54;21.10;99.90
4820;DHT22;2424;49.696;6.630;2023-07-02T17:20:17;20.90;99.90
4820;DHT22;2424;49.696;6.630;2023-07-02T17:25:39;21.20;99.90
4820;DHT22;2424;49.696;6.630;2023-07-02T17:31:03;21.20;99.90
4820;DHT22;2424;49.696;6.630;2023-07-02T17:36:25;20.90;99.90
4820;DHT22;2424;49.696;6.630;2023-07-02T17:41:49;20.80;99.90
4820;DHT22;2424;49.696;6.630;2023-07-02T17:47:14;20.80;99.90
4820;DHT22;2424;49.696;6.630;2023-07-02T17:52:36;20.70;99.90
4820;DHT22;2424;49.696;6.630;2023-07-02T17:57:59;20.60;99.90
4820;DHT22;2424;49.696;6.630;2023-07-02T18:03:23;20.50;99.90
4820;DHT22;2424;49.696;6.630;2023-07-02T18:08:45;20.60;99.90
4820;DHT22;2424;49.696;6.630;2023-07-02T18:14:07;20.60;99.90
4820;DHT22;2424;49.696;6.630;2023-07-02T18:19:31;20.50;99.90
4820;DHT22;2424;49.696;6.630;2023-07-02T18:24:55;20.40;99.90
4820;DHT22;2424;49.696;6.630;2023-07-02T18:30:18;20.30;99.90
4820;DHT22;2424;49.696;6.630;2023-07-02T18:35:44;20.20;99.90
4820;DHT22;2424;49.696;6.630;2023-07-02T18:41:08;20.30;99.90
4820;DHT22;2424;49.696;6.630;2023-07-02T18:46:31;20.10;99.10
4820;DHT22;2424;49.696;6.630;2023-07-02T18:51:55;20.10;99.30
4820;DHT22;2424;49.696;6.630;2023-07-02T18:57:17;20.10;99.30
4820;DHT22;2424;49.696;6.630;2023-07-02T19:02:39;20.00;99.20
4820;DHT22;2424;49.696;6.630;2023-07-02T19:08:03;19.90;99.50
4820;DHT22;2424;49.696;6.630;2023-07-02T19:13:25;19.80;99.80
4820;DHT22;2424;49.696;6.630;2023-07-02T19:18:47;19.70;99.90
4820;DHT22;2424;49.696;6.630;2023-07-02T19:24:11;19.60;99.90
4820;DHT22;2424;49.696;6.630;2023-07-02T19:29:33;19.50;99.90
4820;DHT22;2424;49.696;6.630;2023-07-02T19:34:57;19.50;99.90
4820;DHT22;2424;49.696;6.630;2023-07-02T19:40:20;19.40;99.90
4820;DHT22;2424;49.696;6.630;2023-07-02T19:45:44;19.30;99.90
4820;DHT22;2424;49.696;6.630;2023-07-02T19:51:07;19.30;99.90
4820;DHT22;2424;49.696;6.630;2023-07-02T19:56:30;19.20;99.90
4820;DHT22;2424;49.696;6.630;2023-07-02T20:01:53;19.20;99.90
4820;DHT22;2424;49.696;6.630;2023-07-02T20:07:16;19.20;99.90
4820;DHT22;2424;49.696;6.630;2023-07-02T20:12:39;19.20;99.90
4820;DHT22;2424;49.696;6.630;2023-07-02T20:18:02;19.10;99.90
4820;DHT22;2424;49.696;6.630;2023-07-02T20:23:25;19.00;99.90
4820;DHT22;2424;49.696;6.630;2023-07-02T20:28:49;18.80;99.90
4820;DHT22;2424;49.696;6.630;2023-07-02T20:34:12;18.70;99.90
4820;DHT22;2424;49.696;6.630;2023-07-02T20:39:35;18.60;99.90
4820;DHT22;2424;49.696;6.630;2023-07-02T20:44:59;18.50;99.90
4820;DHT22;2424;49.696;6.630;2023-07-02T20:50:22;18.40;99.90
4820;DHT22;2424;49.696;6.630;2023-07-02T20:55:52;18.40;99.90
4820;DHT22;2424;49.696;6.630;2023-07-02T21:01:16;18.30;99.90
4820;DHT22;2424;49.696;6.630;2023-07-02T21:06:38;18.30;99.90
4820;DHT22;2424;49.696;6.630;2023-07-02T21:12:00;18.30;99.90
4820;DHT22;2424;49.696;6.630;2023-07-02T21:17:24;18.20;99.90
4820;DHT22;2424;49.696;6.630;2023-07-02T21:22:47;18.10;99.90
4820;DHT22;2424;49.696;6.630;2023-07-02T21:28:10;18.00;99.90
4820;DHT22;2424;49.696;6.630;2023-07-02T21:33:33;17.90;99.90
4820;DHT22;2424;49.696;6.630;2023-07-02T21:38:55;17.80;99.90
4820;DHT22;2424;49.696;6.630;2023-07-02T21:44:18;17.50;99.90
4820;DHT22;2424;49.696;6.630;2023-07-02T21:49:41;17.40;99.90
4820;DHT22;2424;49.696;6.630;2023-07-02T21:55:03;17.30;99.90
4820;DHT22;2424;49.696;6.630;2023-07-02T22:00:26;17.30;99.90
4820;DHT22;2424;49.696;6.630;2023-07-02T22:05:53;17.20;99.90
4820;DHT22;2424;49.696;6.630;2023-07-02T22:11:16;17.20;99.90
4820;DHT22;2424;49.696;6.630;2023-07-02T22:16:38;17.20;99.90
4820;DHT22;2424;49.696;6.630;2023-07-02T22:22:02;17.20;99.90
4820;DHT22;2424;49.696;6.630;2023-07-02T22:27:24;17.20;99.90
4820;DHT22;2424;49.696;6.630;2023-07-02T22:32:47;17.20;99.90
4820;DHT22;2424;49.696;6.630;2023-07-02T22:38:10;17.10;99.90
4820;DHT22;2424;49.696;6.630;2023-07-02T22:43:32;17.00;99.90
4820;DHT22;2424;49.696;6.630;2023-07-02T22:48:54;16.90;99.90
4820;DHT22;2424;49.696;6.630;2023-07-02T22:54:18;16.80;99.90
4820;DHT22;2424;49.696;6.630;2023-07-02T22:59:40;16.80;99.90
4820;DHT22;2424;49.696;6.630;2023-07-02T23:05:02;16.70;99.90
4820;DHT22;2424;49.696;6.630;2023-07-02T23:10:26;16.60;99.90
4820;DHT22;2424;49.696;6.630;2023-07-02T23:15:48;16.60;99.90
4820;DHT22;2424;49.696;6.630;2023-07-02T23:21:11;16.60;99.90
4820;DHT22;2424;49.696;6.630;2023-07-02T23:26:35;16.50;99.90
4820;DHT22;2424;49.696;6.630;2023-07-02T23:31:58;16.50;99.90
4820;DHT22;2424;49.696;6.630;2023-07-02T23:37:20;16.40;99.90
4820;DHT22;2424;49.696;6.630;2023-07-02T23:42:44;16.30;99.90
4820;DHT22;2424;49.696;6.630;2023-07-02T23:48:06;16.20;99.90
4820;DHT22;2424;49.696;6.630;2023-07-02T23:53:28;16.10;99.90
4820;DHT22;2424;49.696;6.630;2023-07-02T23:58:51;16.00;99.90
